LIPHLIMZ

Guest
Details From LIPH - TREVISO
To LIMZ - LEVALDIGI
Flight Number -
Tags generated
Created
Modified
Stats Distance 205 nm / 380 km
Max Altitude 20,900 ft / 6,370 m
Waypoints 3
Social Downloads 3
Likes 0
Share VATSIM

Download

Looking for another format? Having issues loading an existing format? Contact us
Advertisement - Login to hide

Notes

Basic altitude profile: - Ascent Rate: 2500ft/min - Ascent Speed: 250kts - Cruise Altitude: 35000ft - Cruise Speed: 420kts - Descent Rate: 1500ft/min - Descent Speed: 250kts

Route

LIPH ROBAS LIMZ

ID Type Via Altitude Latitude Longitude Leg Dist Tot Dist Heading (true) Name
O LIPH APT - 0 ft / 0 m 45.64850˚ 12.19414˚ - 0 nm - TREVISO
ROBAS FIX - 20,900 ft / 6,370 m 45.19361˚ 9.72611˚ 107 nm 107 nm 256° / 254° -
O LIMZ APT - 0 ft / 0 m 44.54760˚ 7.62332˚ 97 nm 205 nm 247° / 246° LEVALDIGI

Altitude Profile

Advertisement - Login to hide

Weather


0- 5 10 15 20 25 30 35+ Temperature / ° C

Clouds and Precipitation
Forecast for 2017-12-15 12:00 UTC. Updated an hour ago

Ground ~20,000 ft ~40,000 ft Winds

LIPH

Details ICAO LIPH (TSF)
Name TREVISO
Region Italy
Timezone Europe/Rome (UTC+1.0)
Stats Elevation 59 ft / 18 m (AMSL)
Location 45.648499° 12.194136°
Runways 1
Magnetic Variation 3.152° E

METAR

LIPH 150950Z VRB01KT 9999 SCT060 08/05 Q0999

Decode

TAF

TAF LIPH 150500Z 1506/1606 VRB06KT 8000 BKN040 TEMPO 1506/1508 1500 BCFG BKN002

Decode

Departure Runways

ID Width Length Bearing (true) Bearing (mag) Surface Threshold Offset Overrun Length
07 144 ft / 44 m 7,919 ft / 2,414 m 69.18° 66.03° Asphalt 254 ft / 77 m 975 ft / 297 m
25 144 ft / 44 m 7,919 ft / 2,414 m 249.20° 246.05° Asphalt 389 ft / 119 m 0 ft / 0 m

LIMZ

Details ICAO LIMZ (CUF)
Name LEVALDIGI
Region Italy
Timezone Europe/Rome (UTC+1.0)
Stats Elevation 1,267 ft / 386 m (AMSL)
Location 44.547603° 7.623322°
Runways 1
Magnetic Variation 2.113° E

METAR

LIMZ 150950Z 19007KT 9999 FEW020 M01/M04 Q1000

Decode

TAF

TAF LIMZ 150500Z 1506/1606 VRB05KT 9999 BKN070

Decode

Destination Runways

ID Width Length Bearing (true) Bearing (mag) Surface Threshold Offset Overrun Length
03 148 ft / 45 m 6,903 ft / 2,104 m 32.49° 30.38° Asphalt 0 ft / 0 m 696 ft / 212 m
21 148 ft / 45 m 6,903 ft / 2,104 m 212.50° 210.39° Asphalt 0 ft / 0 m 581 ft / 177 m

Approach Navaids

Runway Type Ident Frequency Range Bearing (true) Bearing (mag) Slope Elevation
21 Localiser LEV 110.95 MHz 18 nm / 33 km 212.50° 210.38° - 1,267 ft / 386 m (AMSL)
21 Glidescope LEV 110.95 MHz 10 nm / 19 km 212.50° 210.38° 3.00° 1,267 ft / 386 m (AMSL)